sensor_id;sensor_type;location;lat;lon;timestamp;pressure;altitude;pressure_sealevel;temperature;humidity
66668;BME280;57205;51.438;-2.006;2023-02-14T00:01:09;102435.72;;;4.17;100.00
66668;BME280;57205;51.438;-2.006;2023-02-14T00:03:35;102425.94;;;4.18;100.00
66668;BME280;57205;51.438;-2.006;2023-02-14T00:06:07;102419.81;;;4.17;100.00
66668;BME280;57205;51.438;-2.006;2023-02-14T00:08:33;102419.44;;;4.20;100.00
66668;BME280;57205;51.438;-2.006;2023-02-14T00:10:58;102419.28;;;4.22;100.00
66668;BME280;57205;51.438;-2.006;2023-02-14T00:13:23;102419.28;;;4.22;100.00
66668;BME280;57205;51.438;-2.006;2023-02-14T00:15:49;102416.47;;;4.23;100.00
66668;BME280;57205;51.438;-2.006;2023-02-14T00:18:14;102412.16;;;4.22;100.00
66668;BME280;57205;51.438;-2.006;2023-02-14T00:20:39;102425.41;;;4.22;100.00
66668;BME280;57205;51.438;-2.006;2023-02-14T00:23:04;102419.09;;;4.23;100.00
66668;BME280;57205;51.438;-2.006;2023-02-14T00:25:31;102424.41;;;4.23;100.00
66668;BME280;57205;51.438;-2.006;2023-02-14T00:27:57;102423.75;;;4.21;100.00
66668;BME280;57205;51.438;-2.006;2023-02-14T00:30:22;102421.09;;;4.21;100.00
66668;BME280;57205;51.438;-2.006;2023-02-14T00:32:47;102422.09;;;4.20;100.00
66668;BME280;57205;51.438;-2.006;2023-02-14T00:35:13;102417.16;;;4.17;100.00
66668;BME280;57205;51.438;-2.006;2023-02-14T00:37:40;102418.19;;;4.16;100.00
66668;BME280;57205;51.438;-2.006;2023-02-14T00:40:06;102416.50;;;4.15;100.00
66668;BME280;57205;51.438;-2.006;2023-02-14T00:42:31;102413.34;;;4.20;100.00
66668;BME280;57205;51.438;-2.006;2023-02-14T00:44:57;102407.88;;;4.21;100.00
66668;BME280;57205;51.438;-2.006;2023-02-14T00:47:22;102404.19;;;4.22;100.00
66668;BME280;57205;51.438;-2.006;2023-02-14T00:49:47;102404.84;;;4.24;100.00
66668;BME280;57205;51.438;-2.006;2023-02-14T00:52:13;102396.72;;;4.26;100.00
66668;BME280;57205;51.438;-2.006;2023-02-14T00:54:38;102392.72;;;4.30;100.00
66668;BME280;57205;51.438;-2.006;2023-02-14T00:57:04;102395.16;;;4.31;100.00
66668;BME280;57205;51.438;-2.006;2023-02-14T00:59:29;102397.66;;;4.33;100.00
66668;BME280;57205;51.438;-2.006;2023-02-14T01:01:54;102393.53;;;4.30;100.00
66668;BME280;57205;51.438;-2.006;2023-02-14T01:04:19;102393.72;;;4.29;100.00
66668;BME280;57205;51.438;-2.006;2023-02-14T01:06:45;102399.81;;;4.29;100.00
66668;BME280;57205;51.438;-2.006;2023-02-14T01:09:10;102401.84;;;4.27;100.00
66668;BME280;57205;51.438;-2.006;2023-02-14T01:11:35;102393.91;;;4.27;100.00
66668;BME280;57205;51.438;-2.006;2023-02-14T01:14:00;102392.53;;;4.31;100.00
66668;BME280;57205;51.438;-2.006;2023-02-14T01:16:27;102400.13;;;4.34;100.00
66668;BME280;57205;51.438;-2.006;2023-02-14T01:18:52;102400.47;;;4.31;100.00
66668;BME280;57205;51.438;-2.006;2023-02-14T01:21:25;102398.84;;;4.30;100.00
66668;BME280;57205;51.438;-2.006;2023-02-14T01:23:51;102398.00;;;4.30;100.00
66668;BME280;57205;51.438;-2.006;2023-02-14T01:26:18;102398.84;;;4.30;100.00
66668;BME280;57205;51.438;-2.006;2023-02-14T01:28:44;102399.47;;;4.32;100.00
66668;BME280;57205;51.438;-2.006;2023-02-14T01:33:35;102398.84;;;4.30;100.00
66668;BME280;57205;51.438;-2.006;2023-02-14T01:36:01;102398.38;;;4.27;100.00
66668;BME280;57205;51.438;-2.006;2023-02-14T01:38:26;102402.56;;;4.21;100.00
66668;BME280;57205;51.438;-2.006;2023-02-14T01:40:51;102400.44;;;4.17;100.00
66668;BME280;57205;51.438;-2.006;2023-02-14T01:43:16;102401.28;;;4.17;100.00
66668;BME280;57205;51.438;-2.006;2023-02-14T01:45:42;102402.28;;;4.16;100.00
66668;BME280;57205;51.438;-2.006;2023-02-14T01:48:07;102403.28;;;4.15;100.00
66668;BME280;57205;51.438;-2.006;2023-02-14T01:50:35;102399.78;;;4.15;100.00
66668;BME280;57205;51.438;-2.006;2023-02-14T01:53:05;102400.63;;;4.15;100.00
66668;BME280;57205;51.438;-2.006;2023-02-14T01:55:33;102399.63;;;4.16;100.00
66668;BME280;57205;51.438;-2.006;2023-02-14T01:58:01;102403.28;;;4.15;100.00
66668;BME280;57205;51.438;-2.006;2023-02-14T02:00:27;102401.47;;;4.16;100.00
66668;BME280;57205;51.438;-2.006;2023-02-14T02:03:11;102401.53;;;4.22;100.00
66668;BME280;57205;51.438;-2.006;2023-02-14T02:05:38;102404.13;;;4.30;100.00
66668;BME280;57205;51.438;-2.006;2023-02-14T02:08:05;102407.53;;;4.39;100.00
66668;BME280;57205;51.438;-2.006;2023-02-14T02:10:30;102416.13;;;4.41;100.00
66668;BME280;57205;51.438;-2.006;2023-02-14T02:12:56;102412.31;;;4.43;100.00
66668;BME280;57205;51.438;-2.006;2023-02-14T02:15:25;102410.75;;;4.49;100.00
66668;BME280;57205;51.438;-2.006;2023-02-14T02:17:54;102419.16;;;4.52;100.00
66668;BME280;57205;51.438;-2.006;2023-02-14T02:36:17;102421.66;;;4.68;100.00
66668;BME280;57205;51.438;-2.006;2023-02-14T02:39:07;102426.59;;;4.71;100.00
66668;BME280;57205;51.438;-2.006;2023-02-14T02:41:49;102426.22;;;4.74;100.00
66668;BME280;57205;51.438;-2.006;2023-02-14T02:44:26;102425.50;;;4.80;100.00
66668;BME280;57205;51.438;-2.006;2023-02-14T02:47:10;102432.09;;;4.84;100.00
66668;BME280;57205;51.438;-2.006;2023-02-14T02:57:52;102426.34;;;4.95;100.00
66668;BME280;57205;51.438;-2.006;2023-02-14T03:00:18;102420.84;;;4.97;100.00
66668;BME280;57205;51.438;-2.006;2023-02-14T03:02:49;102419.03;;;4.97;100.00
66668;BME280;57205;51.438;-2.006;2023-02-14T03:05:34;102423.97;;;5.01;100.00
66668;BME280;57205;51.438;-2.006;2023-02-14T03:08:01;102415.00;;;5.02;100.00
66668;BME280;57205;51.438;-2.006;2023-02-14T03:10:28;102415.63;;;5.04;100.00
66668;BME280;57205;51.438;-2.006;2023-02-14T03:18:07;102413.81;;;5.04;100.00
66668;BME280;57205;51.438;-2.006;2023-02-14T03:23:49;102407.66;;;5.04;100.00
66668;BME280;57205;51.438;-2.006;2023-02-14T03:33:57;102406.28;;;5.08;100.00
66668;BME280;57205;51.438;-2.006;2023-02-14T03:36:26;102409.78;;;5.08;100.00
66668;BME280;57205;51.438;-2.006;2023-02-14T03:38:56;102401.63;;;5.10;100.00
66668;BME280;57205;51.438;-2.006;2023-02-14T03:41:28;102411.25;;;5.11;100.00
66668;BME280;57205;51.438;-2.006;2023-02-14T03:44:00;102412.53;;;5.15;100.00
66668;BME280;57205;51.438;-2.006;2023-02-14T03:46:27;102408.47;;;5.19;100.00
66668;BME280;57205;51.438;-2.006;2023-02-14T03:48:55;102407.50;;;5.20;100.00
66668;BME280;57205;51.438;-2.006;2023-02-14T03:51:22;102401.78;;;5.23;100.00
66668;BME280;57205;51.438;-2.006;2023-02-14T03:53:48;102403.47;;;5.24;100.00
66668;BME280;57205;51.438;-2.006;2023-02-14T03:56:30;102401.59;;;5.24;100.00
66668;BME280;57205;51.438;-2.006;2023-02-14T03:58:57;102407.56;;;5.26;100.00
66668;BME280;57205;51.438;-2.006;2023-02-14T04:01:27;102407.38;;;5.28;100.00
66668;BME280;57205;51.438;-2.006;2023-02-14T04:03:54;102397.84;;;5.33;100.00
66668;BME280;57205;51.438;-2.006;2023-02-14T04:06:20;102401.97;;;5.36;100.00
66668;BME280;57205;51.438;-2.006;2023-02-14T04:08:46;102395.66;;;5.37;100.00
66668;BME280;57205;51.438;-2.006;2023-02-14T04:11:11;102396.66;;;5.36;100.00
66668;BME280;57205;51.438;-2.006;2023-02-14T04:13:37;102386.66;;;5.38;100.00
66668;BME280;57205;51.438;-2.006;2023-02-14T04:16:02;102381.16;;;5.39;100.00
66668;BME280;57205;51.438;-2.006;2023-02-14T04:18:28;102380.38;;;5.39;100.00
66668;BME280;57205;51.438;-2.006;2023-02-14T04:21:12;102379.16;;;5.41;100.00
66668;BME280;57205;51.438;-2.006;2023-02-14T04:23:37;102380.81;;;5.42;100.00
66668;BME280;57205;51.438;-2.006;2023-02-14T04:26:02;102387.56;;;5.45;100.00
66668;BME280;57205;51.438;-2.006;2023-02-14T04:28:29;102375.19;;;5.52;100.00
66668;BME280;57205;51.438;-2.006;2023-02-14T04:30:54;102376.44;;;5.56;100.00
66668;BME280;57205;51.438;-2.006;2023-02-14T04:33:19;102382.22;;;5.59;100.00
66668;BME280;57205;51.438;-2.006;2023-02-14T04:35:45;102383.88;;;5.60;100.00
66668;BME280;57205;51.438;-2.006;2023-02-14T04:38:10;102386.13;;;5.63;100.00
66668;BME280;57205;51.438;-2.006;2023-02-14T04:40:35;102381.47;;;5.65;100.00
66668;BME280;57205;51.438;-2.006;2023-02-14T04:43:00;102379.88;;;5.71;100.00
66668;BME280;57205;51.438;-2.006;2023-02-14T04:45:26;102377.47;;;5.76;100.00
66668;BME280;57205;51.438;-2.006;2023-02-14T04:47:51;102389.56;;;5.78;100.00
66668;BME280;57205;51.438;-2.006;2023-02-14T04:50:16;102388.38;;;5.81;100.00
66668;BME280;57205;51.438;-2.006;2023-02-14T04:52:42;102389.84;;;5.83;100.00
66668;BME280;57205;51.438;-2.006;2023-02-14T04:55:07;102402.97;;;5.85;100.00
66668;BME280;57205;51.438;-2.006;2023-02-14T04:57:33;102395.63;;;5.87;100.00
66668;BME280;57205;51.438;-2.006;2023-02-14T04:59:58;102392.19;;;5.93;100.00
66668;BME280;57205;51.438;-2.006;2023-02-14T05:02:24;102393.84;;;5.94;100.00
66668;BME280;57205;51.438;-2.006;2023-02-14T05:04:49;102394.84;;;5.93;100.00
66668;BME280;57205;51.438;-2.006;2023-02-14T05:07:14;102390.59;;;5.99;100.00
66668;BME280;57205;51.438;-2.006;2023-02-14T05:09:39;102396.50;;;5.94;100.00
66668;BME280;57205;51.438;-2.006;2023-02-14T05:12:05;102391.19;;;5.94;100.00
66668;BME280;57205;51.438;-2.006;2023-02-14T05:14:30;102389.53;;;5.93;100.00
66668;BME280;57205;51.438;-2.006;2023-02-14T05:16:55;102389.53;;;5.93;100.00
66668;BME280;57205;51.438;-2.006;2023-02-14T05:19:21;102388.72;;;5.93;100.00
66668;BME280;57205;51.438;-2.006;2023-02-14T05:21:46;102401.81;;;5.94;100.00
66668;BME280;57205;51.438;-2.006;2023-02-14T05:24:11;102392.00;;;5.94;100.00
66668;BME280;57205;51.438;-2.006;2023-02-14T05:26:36;102386.94;;;6.00;100.00
66668;BME280;57205;51.438;-2.006;2023-02-14T05:29:02;102380.81;;;5.99;100.00
66668;BME280;57205;51.438;-2.006;2023-02-14T05:31:27;102381.84;;;5.98;100.00
66668;BME280;57205;51.438;-2.006;2023-02-14T05:33:52;102376.50;;;5.98;100.00
66668;BME280;57205;51.438;-2.006;2023-02-14T05:36:17;102369.78;;;6.02;100.00
66668;BME280;57205;51.438;-2.006;2023-02-14T05:38:43;102367.13;;;6.02;100.00
66668;BME280;57205;51.438;-2.006;2023-02-14T05:41:08;102382.47;;;6.00;100.00
66668;BME280;57205;51.438;-2.006;2023-02-14T05:43:33;102380.81;;;5.99;100.00
66668;BME280;57205;51.438;-2.006;2023-02-14T05:45:59;102379.19;;;5.98;100.00
66668;BME280;57205;51.438;-2.006;2023-02-14T05:48:24;102378.16;;;5.99;100.00
66668;BME280;57205;51.438;-2.006;2023-02-14T05:50:49;102377.16;;;6.00;100.00
66668;BME280;57205;51.438;-2.006;2023-02-14T05:53:15;102384.72;;;6.03;100.00
66668;BME280;57205;51.438;-2.006;2023-02-14T05:55:40;102376.38;;;6.06;100.00
66668;BME280;57205;51.438;-2.006;2023-02-14T05:58:05;102376.56;;;6.05;100.00
66668;BME280;57205;51.438;-2.006;2023-02-14T06:00:31;102378.22;;;6.06;100.00
66668;BME280;57205;51.438;-2.006;2023-02-14T06:02:56;102383.34;;;6.07;100.00
66668;BME280;57205;51.438;-2.006;2023-02-14T06:05:22;102382.31;;;6.08;100.00
66668;BME280;57205;51.438;-2.006;2023-02-14T06:07:47;102379.84;;;6.07;100.00
66668;BME280;57205;51.438;-2.006;2023-02-14T06:10:21;102386.78;;;6.08;100.00
66668;BME280;57205;51.438;-2.006;2023-02-14T06:12:47;102388.47;;;6.09;100.00
66668;BME280;57205;51.438;-2.006;2023-02-14T06:15:13;102382.94;;;6.10;100.00
66668;BME280;57205;51.438;-2.006;2023-02-14T06:17:39;102377.44;;;6.12;100.00
66668;BME280;57205;51.438;-2.006;2023-02-14T06:20:04;102373.97;;;6.11;100.00
66668;BME280;57205;51.438;-2.006;2023-02-14T06:22:30;102380.53;;;6.15;100.00
66668;BME280;57205;51.438;-2.006;2023-02-14T06:24:55;102377.06;;;6.15;100.00
66668;BME280;57205;51.438;-2.006;2023-02-14T06:27:20;102382.75;;;6.12;100.00
66668;BME280;57205;51.438;-2.006;2023-02-14T06:29:46;102389.09;;;6.11;100.00
66668;BME280;57205;51.438;-2.006;2023-02-14T06:32:11;102386.44;;;6.11;100.00
66668;BME280;57205;51.438;-2.006;2023-02-14T06:34:36;102380.69;;;6.07;100.00
66668;BME280;57205;51.438;-2.006;2023-02-14T06:37:01;102386.19;;;6.06;100.00
66668;BME280;57205;51.438;-2.006;2023-02-14T06:39:27;102393.53;;;6.04;100.00
66668;BME280;57205;51.438;-2.006;2023-02-14T06:41:52;102395.59;;;6.08;100.00
66668;BME280;57205;51.438;-2.006;2023-02-14T06:44:17;102390.28;;;6.08;100.00
66668;BME280;57205;51.438;-2.006;2023-02-14T06:46:42;102390.47;;;6.07;100.00
66668;BME280;57205;51.438;-2.006;2023-02-14T06:49:08;102388.03;;;6.05;100.00
66668;BME280;57205;51.438;-2.006;2023-02-14T06:51:33;102388.66;;;6.07;100.00
66668;BME280;57205;51.438;-2.006;2023-02-14T06:53:59;102391.50;;;6.06;100.00
66668;BME280;57205;51.438;-2.006;2023-02-14T06:56:24;102386.78;;;6.08;100.00
66668;BME280;57205;51.438;-2.006;2023-02-14T06:58:49;102392.94;;;6.08;100.00
66668;BME280;57205;51.438;-2.006;2023-02-14T07:01:14;102394.34;;;6.04;100.00
66668;BME280;57205;51.438;-2.006;2023-02-14T07:03:40;102390.69;;;6.05;100.00
66668;BME280;57205;51.438;-2.006;2023-02-14T07:06:06;102393.34;;;6.05;100.00
66668;BME280;57205;51.438;-2.006;2023-02-14T07:08:31;102397.81;;;6.05;100.00
66668;BME280;57205;51.438;-2.006;2023-02-14T07:10:56;102398.66;;;6.05;100.00
66668;BME280;57205;51.438;-2.006;2023-02-14T07:13:22;102403.97;;;6.05;100.00
66668;BME280;57205;51.438;-2.006;2023-02-14T07:15:47;102403.56;;;6.08;100.00
66668;BME280;57205;51.438;-2.006;2023-02-14T07:18:12;102408.88;;;6.08;100.00
66668;BME280;57205;51.438;-2.006;2023-02-14T07:20:38;102411.75;;;6.07;100.00
66668;BME280;57205;51.438;-2.006;2023-02-14T07:23:03;102413.75;;;6.05;100.00
66668;BME280;57205;51.438;-2.006;2023-02-14T07:25:28;102412.13;;;6.04;100.00
66668;BME280;57205;51.438;-2.006;2023-02-14T07:27:53;102424.59;;;6.03;100.00
66668;BME280;57205;51.438;-2.006;2023-02-14T07:30:19;102425.22;;;6.05;100.00
66668;BME280;57205;51.438;-2.006;2023-02-14T07:32:44;102424.38;;;6.05;100.00
66668;BME280;57205;51.438;-2.006;2023-02-14T07:35:10;102423.56;;;6.04;100.00
66668;BME280;57205;51.438;-2.006;2023-02-14T07:37:35;102425.66;;;6.09;100.00
66668;BME280;57205;51.438;-2.006;2023-02-14T07:40:00;102422.81;;;6.10;100.00
66668;BME280;57205;51.438;-2.006;2023-02-14T07:42:26;102421.19;;;6.09;100.00
66668;BME280;57205;51.438;-2.006;2023-02-14T07:44:51;102418.50;;;6.09;100.00
66668;BME280;57205;51.438;-2.006;2023-02-14T07:47:17;102409.72;;;6.09;100.00
66668;BME280;57205;51.438;-2.006;2023-02-14T07:49:42;102426.28;;;6.11;100.00
66668;BME280;57205;51.438;-2.006;2023-02-14T07:52:07;102421.22;;;6.16;100.00
66668;BME280;57205;51.438;-2.006;2023-02-14T07:54:33;102430.22;;;6.15;100.00
66668;BME280;57205;51.438;-2.006;2023-02-14T07:56:58;102424.91;;;6.15;100.00
66668;BME280;57205;51.438;-2.006;2023-02-14T07:59:23;102427.38;;;6.16;100.00
66668;BME280;57205;51.438;-2.006;2023-02-14T08:01:48;102430.84;;;6.17;100.00
66668;BME280;57205;51.438;-2.006;2023-02-14T08:04:14;102432.47;;;6.18;100.00
66668;BME280;57205;51.438;-2.006;2023-02-14T08:06:39;102420.03;;;6.18;100.00
66668;BME280;57205;51.438;-2.006;2023-02-14T08:09:05;102428.63;;;6.20;100.00
66668;BME280;57205;51.438;-2.006;2023-02-14T08:11:30;102427.81;;;6.20;100.00
66668;BME280;57205;51.438;-2.006;2023-02-14T08:14:14;102422.94;;;6.23;100.00
66668;BME280;57205;51.438;-2.006;2023-02-14T08:16:39;102409.25;;;6.26;100.00
66668;BME280;57205;51.438;-2.006;2023-02-14T08:19:05;102415.81;;;6.30;100.00
66668;BME280;57205;51.438;-2.006;2023-02-14T08:21:30;102414.50;;;6.41;100.00
66668;BME280;57205;51.438;-2.006;2023-02-14T08:23:55;102421.13;;;6.51;100.00
66668;BME280;57205;51.438;-2.006;2023-02-14T08:26:20;102420.00;;;6.67;100.00
66668;BME280;57205;51.438;-2.006;2023-02-14T08:28:46;102416.72;;;6.99;100.00
66668;BME280;57205;51.438;-2.006;2023-02-14T08:31:11;102413.41;;;7.31;100.00
66668;BME280;57205;51.438;-2.006;2023-02-14T08:33:36;102410.50;;;7.80;100.00
66668;BME280;57205;51.438;-2.006;2023-02-14T08:36:02;102411.38;;;8.33;100.00
66668;BME280;57205;51.438;-2.006;2023-02-14T08:38:27;102412.94;;;8.93;100.00
66668;BME280;57205;51.438;-2.006;2023-02-14T08:40:53;102409.19;;;9.57;100.00
66668;BME280;57205;51.438;-2.006;2023-02-14T08:43:18;102395.72;;;10.08;100.00
66668;BME280;57205;51.438;-2.006;2023-02-14T08:45:44;102406.94;;;10.48;100.00
66668;BME280;57205;51.438;-2.006;2023-02-14T08:48:10;102397.13;;;10.85;100.00
66668;BME280;57205;51.438;-2.006;2023-02-14T08:50:36;102398.75;;;11.22;100.00
66668;BME280;57205;51.438;-2.006;2023-02-14T08:53:05;102399.03;;;11.32;100.00
66668;BME280;57205;51.438;-2.006;2023-02-14T08:55:32;102389.31;;;11.67;100.00
66668;BME280;57205;51.438;-2.006;2023-02-14T08:58:00;102379.25;;;11.92;100.00
66668;BME280;57205;51.438;-2.006;2023-02-14T09:00:26;102384.41;;;12.28;100.00
66668;BME280;57205;51.438;-2.006;2023-02-14T09:02:51;102390.41;;;12.65;98.10
66668;BME280;57205;51.438;-2.006;2023-02-14T09:05:17;102392.22;;;13.11;92.64
66668;BME280;57205;51.438;-2.006;2023-02-14T09:07:42;102393.69;;;13.41;90.17
66668;BME280;57205;51.438;-2.006;2023-02-14T09:10:08;102384.97;;;13.51;86.96
66668;BME280;57205;51.438;-2.006;2023-02-14T09:12:33;102386.78;;;13.62;85.79
66668;BME280;57205;51.438;-2.006;2023-02-14T09:14:59;102389.13;;;13.87;81.86
66668;BME280;57205;51.438;-2.006;2023-02-14T09:17:24;102397.31;;;14.08;81.03
66668;BME280;57205;51.438;-2.006;2023-02-14T09:19:49;102389.88;;;13.99;80.22
66668;BME280;57205;51.438;-2.006;2023-02-14T09:22:15;102403.00;;;13.95;79.69
66668;BME280;57205;51.438;-2.006;2023-02-14T09:24:42;102396.25;;;14.26;79.47
66668;BME280;57205;51.438;-2.006;2023-02-14T09:27:09;102395.53;;;14.47;78.16
66668;BME280;57205;51.438;-2.006;2023-02-14T09:29:34;102387.28;;;14.53;76.73
66668;BME280;57205;51.438;-2.006;2023-02-14T09:32:00;102388.81;;;14.66;75.15
66668;BME280;57205;51.438;-2.006;2023-02-14T09:34:25;102394.03;;;14.73;74.27
66668;BME280;57205;51.438;-2.006;2023-02-14T09:36:51;102387.72;;;14.45;75.18
66668;BME280;57205;51.438;-2.006;2023-02-14T09:39:35;102390.41;;;14.45;76.56
66668;BME280;57205;51.438;-2.006;2023-02-14T09:44:46;102392.41;;;14.22;75.83
66668;BME280;57205;51.438;-2.006;2023-02-14T09:49:59;102393.19;;;12.58;84.13
66668;BME280;57205;51.438;-2.006;2023-02-14T09:52:26;102390.41;;;11.89;89.51
66668;BME280;57205;51.438;-2.006;2023-02-14T09:54:53;102397.53;;;11.36;95.69
66668;BME280;57205;51.438;-2.006;2023-02-14T09:59:52;102406.19;;;10.41;100.00
66668;BME280;57205;51.438;-2.006;2023-02-14T10:12:55;102409.41;;;9.56;100.00
66668;BME280;57205;51.438;-2.006;2023-02-14T10:15:27;102412.75;;;9.45;100.00
66668;BME280;57205;51.438;-2.006;2023-02-14T10:18:00;102416.66;;;9.42;100.00
66668;BME280;57205;51.438;-2.006;2023-02-14T10:20:31;102417.53;;;9.36;100.00
66668;BME280;57205;51.438;-2.006;2023-02-14T10:25:43;102413.00;;;9.37;100.00
66668;BME280;57205;51.438;-2.006;2023-02-14T10:28:11;102405.13;;;9.48;100.00
66668;BME280;57205;51.438;-2.006;2023-02-14T10:30:38;102404.50;;;9.53;100.00
66668;BME280;57205;51.438;-2.006;2023-02-14T10:43:26;102397.28;;;9.60;100.00
66668;BME280;57205;51.438;-2.006;2023-02-14T10:46:02;102392.94;;;9.59;100.00
66668;BME280;57205;51.438;-2.006;2023-02-14T10:51:34;102403.16;;;9.75;100.00
66668;BME280;57205;51.438;-2.006;2023-02-14T10:54:15;102398.03;;;9.73;100.00
66668;BME280;57205;51.438;-2.006;2023-02-14T10:56:50;102390.72;;;9.87;100.00
66668;BME280;57205;51.438;-2.006;2023-02-14T10:59:27;102388.50;;;9.84;100.00
66668;BME280;57205;51.438;-2.006;2023-02-14T11:01:54;102398.09;;;9.92;100.00
66668;BME280;57205;51.438;-2.006;2023-02-14T11:04:21;102393.38;;;9.94;100.00
66668;BME280;57205;51.438;-2.006;2023-02-14T11:06:47;102403.84;;;9.95;100.00
66668;BME280;57205;51.438;-2.006;2023-02-14T11:09:14;102396.19;;;9.99;100.00
66668;BME280;57205;51.438;-2.006;2023-02-14T11:11:49;102395.13;;;10.06;100.00
66668;BME280;57205;51.438;-2.006;2023-02-14T11:16:50;102388.53;;;9.77;100.00
66668;BME280;57205;51.438;-2.006;2023-02-14T11:19:23;102394.75;;;9.71;100.00
66668;BME280;57205;51.438;-2.006;2023-02-14T11:21:49;102390.53;;;9.51;100.00
66668;BME280;57205;51.438;-2.006;2023-02-14T11:24:21;102386.19;;;9.56;100.00
66668;BME280;57205;51.438;-2.006;2023-02-14T11:26:49;102377.44;;;9.74;100.00
66668;BME280;57205;51.438;-2.006;2023-02-14T11:29:20;102381.94;;;9.80;100.00
66668;BME280;57205;51.438;-2.006;2023-02-14T11:31:48;102374.88;;;9.92;100.00
66668;BME280;57205;51.438;-2.006;2023-02-14T11:34:33;102375.28;;;9.89;100.00
66668;BME280;57205;51.438;-2.006;2023-02-14T11:37:01;102368.41;;;10.00;100.00
66668;BME280;57205;51.438;-2.006;2023-02-14T11:39:31;102359.53;;;10.06;100.00
66668;BME280;57205;51.438;-2.006;2023-02-14T11:42:00;102362.19;;;10.06;100.00
66668;BME280;57205;51.438;-2.006;2023-02-14T11:44:27;102355.88;;;10.00;100.00
66668;BME280;57205;51.438;-2.006;2023-02-14T11:46:54;102351.81;;;9.91;100.00
66668;BME280;57205;51.438;-2.006;2023-02-14T11:51:52;102339.16;;;9.80;100.00
66668;BME280;57205;51.438;-2.006;2023-02-14T11:55:00;102339.16;;;9.80;100.00
66668;BME280;57205;51.438;-2.006;2023-02-14T11:57:51;102339.78;;;9.75;100.00
66668;BME280;57205;51.438;-2.006;2023-02-14T11:59:58;102327.47;;;9.74;100.00
66668;BME280;57205;51.438;-2.006;2023-02-14T12:02:31;102326.41;;;9.82;100.00
66668;BME280;57205;51.438;-2.006;2023-02-14T12:05:02;102323.06;;;9.86;100.00
66668;BME280;57205;51.438;-2.006;2023-02-14T12:07:37;102328.41;;;9.86;100.00
66668;BME280;57205;51.438;-2.006;2023-02-14T12:12:37;102307.63;;;9.88;100.00
66668;BME280;57205;51.438;-2.006;2023-02-14T12:15:57;102315.00;;;9.93;100.00
66668;BME280;57205;51.438;-2.006;2023-02-14T12:23:03;102308.03;;;9.92;100.00
66668;BME280;57205;51.438;-2.006;2023-02-14T12:25:46;102294.66;;;9.92;100.00
66668;BME280;57205;51.438;-2.006;2023-02-14T12:28:15;102300.03;;;9.85;100.00
66668;BME280;57205;51.438;-2.006;2023-02-14T12:30:42;102297.16;;;9.87;100.00
66668;BME280;57205;51.438;-2.006;2023-02-14T12:33:14;102290.78;;;9.88;100.00
66668;BME280;57205;51.438;-2.006;2023-02-14T12:38:19;102283.63;;;9.82;100.00
66668;BME280;57205;51.438;-2.006;2023-02-14T12:46:37;102277.78;;;9.67;100.00
66668;BME280;57205;51.438;-2.006;2023-02-14T12:54:31;102278.88;;;9.84;100.00
66668;BME280;57205;51.438;-2.006;2023-02-14T13:22:43;102252.06;;;9.91;100.00
66668;BME280;57205;51.438;-2.006;2023-02-14T13:25:12;102243.25;;;9.90;100.00
66668;BME280;57205;51.438;-2.006;2023-02-14T13:27:42;102240.72;;;9.95;100.00
66668;BME280;57205;51.438;-2.006;2023-02-14T13:32:38;102240.66;;;10.02;100.00
66668;BME280;57205;51.438;-2.006;2023-02-14T13:35:05;102249.72;;;10.01;100.00
66668;BME280;57205;51.438;-2.006;2023-02-14T13:37:31;102238.16;;;10.07;100.00
66668;BME280;57205;51.438;-2.006;2023-02-14T13:40:07;102236.91;;;10.09;100.00
66668;BME280;57205;51.438;-2.006;2023-02-14T13:46:11;102222.50;;;10.28;100.00
66668;BME280;57205;51.438;-2.006;2023-02-14T13:50:35;102221.78;;;10.39;100.00
66668;BME280;57205;51.438;-2.006;2023-02-14T13:53:02;102216.78;;;10.43;100.00
66668;BME280;57205;51.438;-2.006;2023-02-14T13:55:29;102214.25;;;10.48;100.00
66668;BME280;57205;51.438;-2.006;2023-02-14T13:58:01;102212.72;;;10.40;100.00
66668;BME280;57205;51.438;-2.006;2023-02-14T14:00:40;102212.13;;;10.38;100.00
66668;BME280;57205;51.438;-2.006;2023-02-14T14:03:06;102206.53;;;10.40;100.00
66668;BME280;57205;51.438;-2.006;2023-02-14T14:11:00;102184.59;;;10.49;100.00
66668;BME280;57205;51.438;-2.006;2023-02-14T14:18:47;102186.53;;;10.60;100.00
66668;BME280;57205;51.438;-2.006;2023-02-14T14:21:14;102184.63;;;10.61;100.00
66668;BME280;57205;51.438;-2.006;2023-02-14T14:23:39;102180.34;;;10.60;100.00
66668;BME280;57205;51.438;-2.006;2023-02-14T14:28:59;102177.19;;;10.63;100.00
66668;BME280;57205;51.438;-2.006;2023-02-14T14:31:25;102175.81;;;10.60;100.00
66668;BME280;57205;51.438;-2.006;2023-02-14T14:33:58;102172.09;;;10.61;100.00
66668;BME280;57205;51.438;-2.006;2023-02-14T14:36:23;102169.75;;;10.65;100.00
66668;BME280;57205;51.438;-2.006;2023-02-14T14:38:50;102173.72;;;10.62;100.00
66668;BME280;57205;51.438;-2.006;2023-02-14T14:41:16;102161.97;;;10.63;100.00
66668;BME280;57205;51.438;-2.006;2023-02-14T14:43:41;102162.19;;;10.62;100.00
66668;BME280;57205;51.438;-2.006;2023-02-14T14:46:08;102166.06;;;10.66;100.00
66668;BME280;57205;51.438;-2.006;2023-02-14T14:48:45;102159.22;;;10.70;100.00
66668;BME280;57205;51.438;-2.006;2023-02-14T14:51:20;102157.91;;;10.72;100.00
66668;BME280;57205;51.438;-2.006;2023-02-14T14:53:47;102152.94;;;10.76;100.00
66668;BME280;57205;51.438;-2.006;2023-02-14T14:56:24;102152.72;;;10.77;100.00
66668;BME280;57205;51.438;-2.006;2023-02-14T14:58:50;102150.03;;;10.77;100.00
66668;BME280;57205;51.438;-2.006;2023-02-14T15:03:53;102147.50;;;10.82;100.00
66668;BME280;57205;51.438;-2.006;2023-02-14T15:06:20;102146.00;;;10.87;100.00
66668;BME280;57205;51.438;-2.006;2023-02-14T15:08:45;102143.69;;;10.90;100.00
66668;BME280;57205;51.438;-2.006;2023-02-14T15:13:39;102137.84;;;10.93;100.00
66668;BME280;57205;51.438;-2.006;2023-02-14T15:18:46;102129.81;;;10.93;100.00